Minhang, China
Current Conditions -  °F | °C
As of 4:30 AM on Saturday 29 Nov 2014 (Local Time) from ZSSS Reporting Station
Haze Haze  
Wind Chill: 54°   Ceiling: Unl
Heat Index: 54°   Visibility: 3mi
Dew Point: 52°   Wind: 7mph
Humidity: 94%   Direction: 360°N
Pressure: 30.12"   Gusts: NA
Location:  31.01°N, 121.41°E
Report Text: ZSSS 282030Z 36003MPS 5000 BR SCT026 12/11 Q1020 NOSIG
Loading
Personal Weather Stations






























Interactive Weather Map New forecast layout! Learn more

10-Day Weather Forecast

Advertisements
Track Severe Weather on mobile